createdAt,value
2018-11-01T00:02:12.848Z,5.73
2018-11-01T00:04:41.288Z,7.37
2018-11-01T00:07:11.854Z,5.77
2018-11-01T00:09:40.262Z,5.67
2018-11-01T00:12:08.730Z,6.63
2018-11-01T00:14:37.214Z,6.03
2018-11-01T00:17:06.251Z,5.20
2018-11-01T00:19:34.697Z,6.10
2018-11-01T00:22:04.005Z,6.17
2018-11-01T00:24:32.541Z,8.73
2018-11-01T00:27:01.784Z,5.70
2018-11-01T00:29:30.238Z,5.30
2018-11-01T00:32:00.290Z,7.70
2018-11-01T00:34:28.930Z,5.07
2018-11-01T00:36:57.560Z,4.83
2018-11-01T00:39:26.402Z,4.67
2018-11-01T00:41:54.939Z,7.40
2018-11-01T00:44:23.382Z,5.50
2018-11-01T00:46:52.218Z,6.30
2018-11-01T00:49:20.682Z,4.87
2018-11-01T00:51:49.142Z,4.53
2018-11-01T00:54:17.604Z,5.27
2018-11-01T00:56:46.058Z,4.50
2018-11-01T00:59:14.506Z,6.17
2018-11-01T01:01:42.970Z,5.53
2018-11-01T01:04:11.457Z,4.77
2018-11-01T01:06:39.936Z,4.80
2018-11-01T01:09:11.015Z,4.50
2018-11-01T01:11:39.565Z,4.37
2018-11-01T01:14:08.609Z,8.40
2018-11-01T01:16:37.134Z,4.23
2018-11-01T01:19:06.657Z,4.33
2018-11-01T01:21:35.275Z,4.60
2018-11-01T01:24:04.358Z,4.40
2018-11-01T01:26:33.912Z,4.43
2018-11-01T01:29:02.395Z,5.33
2018-11-01T01:31:30.850Z,4.50
2018-11-01T01:33:59.273Z,4.70
2018-11-01T01:36:28.001Z,4.90
2018-11-01T01:38:56.493Z,4.23
2018-11-01T01:41:37.490Z,4.40
2018-11-01T01:44:06.182Z,5.03
2018-11-01T01:46:34.734Z,5.13
2018-11-01T01:49:04.126Z,5.80
2018-11-01T01:51:32.592Z,6.37
2018-11-01T01:54:01.065Z,5.43
2018-11-01T01:56:29.502Z,4.07
2018-11-01T01:58:58.039Z,3.70
2018-11-01T02:01:26.518Z,3.80
2018-11-01T02:03:54.978Z,4.73
2018-11-01T02:06:23.407Z,4.00
2018-11-01T02:08:51.890Z,4.00
2018-11-01T02:11:20.322Z,4.43
2018-11-01T02:13:48.810Z,4.00
2018-11-01T02:16:17.272Z,5.20
2018-11-01T02:18:45.743Z,3.90
2018-11-01T02:21:14.191Z,3.70
2018-11-01T02:23:42.838Z,4.27
2018-11-01T02:26:11.298Z,5.53
2018-11-01T02:28:39.958Z,6.33
2018-11-01T02:31:08.382Z,3.60
2018-11-01T02:33:36.847Z,4.23
2018-11-01T02:36:05.529Z,3.80
2018-11-01T02:38:34.118Z,3.37
2018-11-01T02:41:02.623Z,3.87
2018-11-01T02:43:31.116Z,3.80
2018-11-01T02:46:00.918Z,3.43
2018-11-01T02:48:29.373Z,4.67
2018-11-01T02:50:57.802Z,3.80
2018-11-01T02:53:26.290Z,3.40
2018-11-01T02:55:54.721Z,3.43
2018-11-01T02:58:23.174Z,3.43
2018-11-01T03:00:51.649Z,3.60
2018-11-01T03:03:20.095Z,3.83
2018-11-01T03:05:48.902Z,4.13
2018-11-01T03:08:17.337Z,3.57
2018-11-01T03:10:45.852Z,3.43
2018-11-01T03:13:14.323Z,4.00
2018-11-01T03:15:42.825Z,3.77
2018-11-01T03:18:11.264Z,6.30
2018-11-01T03:20:40.066Z,4.97
2018-11-01T03:23:08.598Z,5.47
2018-11-01T03:25:37.068Z,3.40
2018-11-01T03:28:06.175Z,3.80
2018-11-01T03:30:34.642Z,3.87
2018-11-01T03:33:03.138Z,3.70
2018-11-01T03:35:31.606Z,3.87
2018-11-01T03:38:00.119Z,4.40
2018-11-01T03:40:28.793Z,5.30
2018-11-01T03:42:57.235Z,3.60
2018-11-01T03:45:25.687Z,4.63
2018-11-01T03:47:54.132Z,6.00
2018-11-01T03:50:22.601Z,3.50
2018-11-01T03:52:51.033Z,3.67
2018-11-01T03:55:19.504Z,3.03
2018-11-01T03:57:47.983Z,4.77
2018-11-01T04:00:17.463Z,4.17
2018-11-01T04:02:47.150Z,3.30
2018-11-01T04:05:16.115Z,4.20
2018-11-01T04:07:44.577Z,3.90
2018-11-01T04:10:13.279Z,3.17
2018-11-01T04:12:41.738Z,4.03
2018-11-01T04:15:12.873Z,4.70
2018-11-01T04:17:41.284Z,4.00
2018-11-01T04:20:11.082Z,6.67
2018-11-01T04:22:39.665Z,4.67
2018-11-01T04:25:08.111Z,3.43
2018-11-01T04:27:36.599Z,3.10
2018-11-01T04:30:05.511Z,7.87
2018-11-01T04:32:33.986Z,3.43
2018-11-01T04:35:02.495Z,4.57
2018-11-01T04:37:30.972Z,4.90
2018-11-01T04:39:59.480Z,7.57
2018-11-01T04:42:27.967Z,4.10
2018-11-01T04:44:56.463Z,3.83
2018-11-01T04:47:25.114Z,4.53
2018-11-01T04:49:53.742Z,4.27
2018-11-01T04:52:22.217Z,4.07
2018-11-01T04:54:50.736Z,4.33
2018-11-01T04:57:19.226Z,4.20
2018-11-01T04:59:47.678Z,4.17
2018-11-01T05:02:16.107Z,4.10
2018-11-01T05:04:44.609Z,3.80
2018-11-01T05:07:13.386Z,4.10
2018-11-01T05:09:41.836Z,4.60
2018-11-01T05:12:10.310Z,4.10
2018-11-01T05:14:38.782Z,3.73
2018-11-01T05:17:07.235Z,3.60
2018-11-01T05:19:35.694Z,4.63
2018-11-01T05:22:04.524Z,4.03
2018-11-01T05:24:33.052Z,4.33
2018-11-01T05:27:01.622Z,4.40
2018-11-01T05:29:30.097Z,4.17
2018-11-01T05:31:58.743Z,4.00
2018-11-01T05:34:28.113Z,4.07
2018-11-01T05:36:56.735Z,3.80
2018-11-01T05:39:25.174Z,4.00
2018-11-01T05:41:53.654Z,4.40
2018-11-01T05:44:22.316Z,4.10
2018-11-01T05:46:50.751Z,3.80
2018-11-01T05:49:19.200Z,4.27
2018-11-01T05:51:47.642Z,3.63
2018-11-01T05:54:16.102Z,4.47
2018-11-01T05:56:44.585Z,4.70
2018-11-01T05:59:13.183Z,3.57
2018-11-01T06:01:46.924Z,4.63
2018-11-01T06:04:15.410Z,4.37
2018-11-01T06:06:43.891Z,4.10
2018-11-01T06:09:18.630Z,5.33
2018-11-01T06:11:47.087Z,4.10
2018-11-01T06:14:15.536Z,5.03
2018-11-01T06:16:45.056Z,4.90
2018-11-01T06:19:13.749Z,5.57
2018-11-01T06:21:42.238Z,5.77
2018-11-01T06:24:10.676Z,5.23
2018-11-01T06:26:39.171Z,4.30
2018-11-01T06:29:07.616Z,5.07
2018-11-01T06:31:36.103Z,4.63
2018-11-01T06:34:04.985Z,6.17
2018-11-01T06:36:33.433Z,4.53
2018-11-01T06:39:01.871Z,5.37
2018-11-01T06:41:30.317Z,4.90
2018-11-01T06:43:58.766Z,4.57
2018-11-01T06:46:27.258Z,5.93
2018-11-01T06:48:55.699Z,8.10
2018-11-01T06:51:24.137Z,4.37
2018-11-01T06:53:52.569Z,6.27
2018-11-01T06:56:21.006Z,8.40
2018-11-01T06:58:49.734Z,8.20
2018-11-01T07:01:18.443Z,7.87
2018-11-01T07:03:46.886Z,6.43
2018-11-01T07:06:15.345Z,6.00
2018-11-01T07:08:43.814Z,5.77
2018-11-01T07:11:12.231Z,6.60
2018-11-01T07:13:41.607Z,6.23
2018-11-01T07:16:10.047Z,5.17
2018-11-01T07:18:38.547Z,5.27
2018-11-01T07:21:06.984Z,4.90
2018-11-01T07:23:35.463Z,8.87
2018-11-01T07:26:03.999Z,10.83
2018-11-01T07:28:32.538Z,8.67
2018-11-01T07:31:00.976Z,14.43
2018-11-01T07:33:29.425Z,11.87
2018-11-01T07:35:57.878Z,23.07
2018-11-01T07:38:26.347Z,31.00
2018-11-01T07:40:54.803Z,28.80
2018-11-01T07:43:23.259Z,24.33
2018-11-01T07:45:51.706Z,14.27
2018-11-01T07:48:20.174Z,8.70
2018-11-01T07:50:48.574Z,8.47
2018-11-01T07:53:19.048Z,7.07
2018-11-01T07:55:47.518Z,8.00
2018-11-01T07:58:16.545Z,6.00
2018-11-01T08:00:45.133Z,7.70
2018-11-01T08:03:13.614Z,8.27
2018-11-01T08:05:42.406Z,7.57
2018-11-01T08:08:10.982Z,6.23
2018-11-01T08:10:39.707Z,6.30
2018-11-01T08:13:08.145Z,6.10
2018-11-01T08:15:39.687Z,7.77
2018-11-01T08:18:08.150Z,6.33
2018-11-01T08:20:36.917Z,6.10
2018-11-01T08:23:05.671Z,6.80
2018-11-01T08:25:34.139Z,9.07
2018-11-01T08:28:03.157Z,5.67
2018-11-01T08:30:31.791Z,6.07
2018-11-01T08:33:01.277Z,7.67
2018-11-01T08:35:29.819Z,6.90
2018-11-01T08:37:58.259Z,6.40
2018-11-01T08:40:27.408Z,7.60
2018-11-01T08:42:55.844Z,6.10
2018-11-01T08:45:24.341Z,5.33
2018-11-01T08:47:52.780Z,5.97
2018-11-01T08:50:21.237Z,7.57
2018-11-01T08:52:49.671Z,6.20
2018-11-01T08:55:18.503Z,6.87
2018-11-01T08:57:47.415Z,5.70
2018-11-01T09:00:15.883Z,6.60
2018-11-01T09:02:44.917Z,6.10
2018-11-01T09:05:13.985Z,6.03
2018-11-01T09:07:42.781Z,7.83
2018-11-01T09:10:13.612Z,5.30
2018-11-01T09:12:42.453Z,5.40
2018-11-01T09:15:12.811Z,7.17
2018-11-01T09:17:41.880Z,5.40
2018-11-01T09:20:11.078Z,4.90
2018-11-01T09:22:40.254Z,5.67
2018-11-01T09:25:09.242Z,5.13
2018-11-01T09:27:37.849Z,5.67
2018-11-01T09:30:11.592Z,6.00
2018-11-01T09:32:41.281Z,6.40
2018-11-01T09:35:11.346Z,5.27
2018-11-01T09:37:40.727Z,4.30
2018-11-01T09:40:10.705Z,5.37
2018-11-01T09:42:39.370Z,5.23
2018-11-01T09:45:08.298Z,6.03
2018-11-01T09:47:37.225Z,4.77
2018-11-01T09:50:06.754Z,4.93
2018-11-01T09:52:35.242Z,4.43
2018-11-01T09:55:03.708Z,5.90
2018-11-01T09:57:32.216Z,9.03
2018-11-01T10:00:00.642Z,4.43
2018-11-01T10:02:29.128Z,4.80
2018-11-01T10:04:57.577Z,4.90
2018-11-01T10:07:26.117Z,4.93
2018-11-01T10:09:54.561Z,4.30
2018-11-01T10:12:23.014Z,5.20
2018-11-01T10:14:51.463Z,4.47
2018-11-01T10:17:20.267Z,4.30
2018-11-01T10:19:48.585Z,4.30
2018-11-01T10:22:17.134Z,5.43
2018-11-01T10:24:45.718Z,6.60
2018-11-01T10:27:19.516Z,4.93
2018-11-01T10:29:42.809Z,4.47
2018-11-01T10:32:11.234Z,4.83
2018-11-01T10:34:40.051Z,4.57
2018-11-01T10:37:08.615Z,7.17
2018-11-01T10:39:37.088Z,4.77
2018-11-01T10:42:06.112Z,5.47
2018-11-01T10:44:34.719Z,6.67
2018-11-01T10:47:03.498Z,5.83
2018-11-01T10:49:31.968Z,7.20
2018-11-01T10:52:00.449Z,5.63
2018-11-01T10:54:29.008Z,8.50
2018-11-01T10:56:57.553Z,5.93
2018-11-01T10:59:26.041Z,4.80
2018-11-01T11:01:59.723Z,8.07
2018-11-01T11:04:28.187Z,5.57
2018-11-01T11:11:47.263Z,6.23
2018-11-01T11:14:15.788Z,4.90
2018-11-01T11:16:44.374Z,5.57
2018-11-01T11:19:12.806Z,4.63
2018-11-01T11:21:41.249Z,6.03
2018-11-01T11:24:09.681Z,4.63
2018-11-01T11:26:38.114Z,6.03
2018-11-01T11:29:06.926Z,4.97
2018-11-01T11:31:35.371Z,4.80
2018-11-01T11:34:03.842Z,4.57
2018-11-01T11:36:32.283Z,8.67
2018-11-01T11:39:00.767Z,5.23
2018-11-01T11:41:29.379Z,6.37
2018-11-01T11:43:57.810Z,8.53
2018-11-01T11:46:26.459Z,8.90
2018-11-01T11:48:54.959Z,10.63
2018-11-01T11:51:23.454Z,16.03
2018-11-01T11:53:52.081Z,15.53
2018-11-01T11:56:20.549Z,13.67
2018-11-01T11:58:48.993Z,16.50
2018-11-01T12:01:17.453Z,14.60
2018-11-01T12:03:45.989Z,12.80
2018-11-01T12:06:14.666Z,14.60
2018-11-01T12:08:43.156Z,14.67
2018-11-01T12:11:11.897Z,12.77
2018-11-01T12:13:40.470Z,12.60
2018-11-01T12:16:09.467Z,11.90
2018-11-01T12:18:37.895Z,9.67
2018-11-01T12:21:06.796Z,7.87
2018-11-01T12:23:35.309Z,12.10
2018-11-01T12:26:03.798Z,8.30
2018-11-01T12:28:32.345Z,5.60
2018-11-01T12:31:00.903Z,5.10
2018-11-01T12:33:29.362Z,6.47
2018-11-01T12:35:57.909Z,6.73
2018-11-01T12:38:26.461Z,5.77
2018-11-01T12:40:54.974Z,6.93
2018-11-01T12:43:23.482Z,8.60
2018-11-01T12:45:51.954Z,7.47
2018-11-01T12:48:20.422Z,6.63
2018-11-01T12:50:48.921Z,6.50
2018-11-01T12:53:17.349Z,6.57
2018-11-01T12:55:45.835Z,5.73
2018-11-01T12:58:14.354Z,13.53
2018-11-01T13:00:42.869Z,14.47
2018-11-01T13:03:11.315Z,8.00
2018-11-01T13:05:39.952Z,7.60
2018-11-01T13:08:08.685Z,7.10
2018-11-01T13:10:37.821Z,7.40
2018-11-01T13:13:06.443Z,6.73
2018-11-01T13:15:35.577Z,6.10
2018-11-01T13:18:04.139Z,7.80
2018-11-01T13:20:32.715Z,6.20
2018-11-01T13:23:01.131Z,5.63
2018-11-01T13:25:29.588Z,6.47
2018-11-01T13:27:58.022Z,5.43
2018-11-01T13:30:26.465Z,6.33
2018-11-01T13:32:55.030Z,7.13
2018-11-01T13:35:23.532Z,6.17
2018-11-01T13:37:52.127Z,8.00
2018-11-01T13:40:20.972Z,6.03
2018-11-01T13:42:49.291Z,11.00
2018-11-01T13:45:17.789Z,8.10
2018-11-01T13:47:47.300Z,6.70
2018-11-01T13:50:15.884Z,7.67
2018-11-01T13:52:44.314Z,6.67
2018-11-01T13:55:13.378Z,8.50
2018-11-01T13:57:41.847Z,7.60
2018-11-01T14:00:12.469Z,9.03
2018-11-01T14:02:41.762Z,7.90
2018-11-01T14:05:12.515Z,8.83
2018-11-01T14:07:41.948Z,7.13
2018-11-01T14:10:12.234Z,6.73
2018-11-01T14:12:40.817Z,9.73
2018-11-01T14:15:10.855Z,7.30
2018-11-01T14:17:39.638Z,8.10
2018-11-01T14:20:09.344Z,7.57
2018-11-01T14:22:37.885Z,9.50
2018-11-01T14:25:07.272Z,9.83
2018-11-01T14:27:35.914Z,8.40
2018-11-01T14:30:04.666Z,9.47
2018-11-01T14:32:33.133Z,8.80
2018-11-01T14:35:01.578Z,9.57
2018-11-01T14:37:30.031Z,9.83
2018-11-01T14:39:58.473Z,10.13
2018-11-01T14:42:26.921Z,11.83
2018-11-01T14:44:55.391Z,10.37
2018-11-01T14:47:23.918Z,11.20
2018-11-01T14:49:53.318Z,11.20
2018-11-01T14:52:22.217Z,10.37
2018-11-01T14:54:51.217Z,12.00
2018-11-01T14:57:20.539Z,11.13
2018-11-01T14:59:49.172Z,12.70
2018-11-01T15:02:16.415Z,11.43
2018-11-01T15:04:44.883Z,12.33
2018-11-01T15:07:13.346Z,12.07
2018-11-01T15:09:41.802Z,14.93
2018-11-01T15:12:10.625Z,13.17
2018-11-01T15:14:39.070Z,13.27
2018-11-01T15:17:07.593Z,14.17
2018-11-01T15:19:36.610Z,16.37
2018-11-01T15:22:05.794Z,13.30
2018-11-01T15:24:34.869Z,13.40
2018-11-01T15:27:04.406Z,15.57
2018-11-01T15:29:32.826Z,15.73
2018-11-01T15:32:02.880Z,15.77
2018-11-01T15:34:31.995Z,16.77
2018-11-01T15:37:00.667Z,17.43
2018-11-01T15:39:29.102Z,18.30
2018-11-01T15:41:57.703Z,20.33
2018-11-01T15:44:26.158Z,19.67
2018-11-01T15:46:54.634Z,18.90
2018-11-01T15:49:23.091Z,18.50
2018-11-01T15:51:52.361Z,18.13
2018-11-01T15:54:20.992Z,18.50
2018-11-01T15:56:49.456Z,19.67
2018-11-01T15:59:17.978Z,19.83
2018-11-01T16:01:46.565Z,18.87
2018-11-01T16:04:14.983Z,19.13
2018-11-01T16:06:43.625Z,18.80
2018-11-01T16:09:13.146Z,16.57
2018-11-01T16:11:41.785Z,16.37
2018-11-01T16:14:10.895Z,16.10
2018-11-01T16:16:39.978Z,16.73
2018-11-01T16:19:09.882Z,20.07
2018-11-01T16:21:38.399Z,16.10
2018-11-01T16:24:07.283Z,16.57
2018-11-01T16:26:35.947Z,14.73
2018-11-01T16:29:35.184Z,16.13
2018-11-01T16:32:03.910Z,15.13
2018-11-01T16:34:32.378Z,13.13
2018-11-01T16:37:00.894Z,14.13
2018-11-01T16:39:29.543Z,15.90
2018-11-01T16:41:58.094Z,14.57
2018-11-01T16:44:26.837Z,13.33
2018-11-01T16:46:55.449Z,14.60
2018-11-01T16:49:24.317Z,16.50
2018-11-01T16:51:52.826Z,14.20
2018-11-01T16:54:21.417Z,14.47
2018-11-01T16:56:49.883Z,14.37
2018-11-01T16:59:18.488Z,13.50
2018-11-01T17:01:50.819Z,13.47
2018-11-01T17:04:20.591Z,14.10
2018-11-01T17:06:49.122Z,13.63
2018-11-01T17:09:18.283Z,14.10
2018-11-01T17:11:46.859Z,13.70
2018-11-01T17:14:15.334Z,13.60
2018-11-01T17:16:43.794Z,13.53
2018-11-01T17:19:13.135Z,13.63
2018-11-01T17:21:41.584Z,13.30
2018-11-01T17:24:10.066Z,13.57
2018-11-01T17:26:38.509Z,17.43
2018-11-01T17:29:06.966Z,13.77
2018-11-01T17:31:35.410Z,13.77
2018-11-01T17:34:04.220Z,14.43
2018-11-01T17:36:32.755Z,14.87
2018-11-01T17:39:01.237Z,15.53
2018-11-01T17:41:29.706Z,19.17
2018-11-01T17:43:58.366Z,18.63
2018-11-01T17:46:26.872Z,16.53
2018-11-01T17:48:55.567Z,20.00
2018-11-01T17:51:24.836Z,17.00
2018-11-01T17:53:53.430Z,19.13
2018-11-01T17:56:21.890Z,18.97
2018-11-01T17:58:50.339Z,16.53
2018-11-01T18:01:18.786Z,16.87
2018-11-01T18:03:47.249Z,17.43
2018-11-01T18:06:15.682Z,17.93
2018-11-01T18:08:44.217Z,18.77
2018-11-01T18:11:12.801Z,17.97
2018-11-01T18:13:41.273Z,16.93
2018-11-01T18:16:09.709Z,17.83
2018-11-01T18:18:38.186Z,19.20
2018-11-01T18:21:06.705Z,17.17
2018-11-01T18:23:35.199Z,17.93
2018-11-01T18:26:04.280Z,18.87
2018-11-01T18:28:32.768Z,18.47
2018-11-01T18:31:01.221Z,18.70
2018-11-01T18:33:30.299Z,17.90
2018-11-01T18:35:58.945Z,19.00
2018-11-01T18:38:27.399Z,17.10
2018-11-01T18:40:55.930Z,17.37
2018-11-01T18:43:24.400Z,19.27
2018-11-01T18:45:53.028Z,18.20
2018-11-01T18:48:25.319Z,17.70
2018-11-01T18:50:53.913Z,17.30
2018-11-01T18:53:22.371Z,18.13
2018-11-01T18:55:51.125Z,18.70
2018-11-01T18:58:19.689Z,21.03
2018-11-01T19:00:48.705Z,24.93
2018-11-01T19:03:21.533Z,20.43
2018-11-01T19:05:50.187Z,19.10
2018-11-01T19:08:18.622Z,20.73
2018-11-01T19:10:47.295Z,19.20
2018-11-01T19:13:15.803Z,20.97
2018-11-01T19:15:44.462Z,23.00
2018-11-01T19:18:12.961Z,24.10
2018-11-01T19:20:41.447Z,21.67
2018-11-01T19:23:09.902Z,21.30
2018-11-01T19:25:38.362Z,19.40
2018-11-01T19:28:06.686Z,19.90
2018-11-01T19:30:35.118Z,16.80
2018-11-01T19:33:03.640Z,16.33
2018-11-01T19:35:32.214Z,17.13
2018-11-01T19:38:00.961Z,15.77
2018-11-01T19:40:30.018Z,16.13
2018-11-01T19:42:58.550Z,15.90
2018-11-01T19:45:27.047Z,15.93
2018-11-01T19:47:56.036Z,16.60
2018-11-01T19:50:24.691Z,15.97
2018-11-01T19:52:53.543Z,17.33
2018-11-01T19:55:22.155Z,16.67
2018-11-01T19:57:50.810Z,18.43
2018-11-01T20:00:19.303Z,17.93
2018-11-01T20:02:48.403Z,16.63
2018-11-01T20:05:17.453Z,15.60
2018-11-01T20:07:46.070Z,16.57
2018-11-01T20:10:15.435Z,16.83
2018-11-01T20:12:44.846Z,16.47
2018-11-01T20:15:13.502Z,15.80
2018-11-01T20:17:42.249Z,16.47
2018-11-01T20:20:12.099Z,17.13
2018-11-01T20:22:41.269Z,18.83
2018-11-01T20:25:10.286Z,17.80
2018-11-01T20:27:39.143Z,18.90
2018-11-01T20:30:11.058Z,19.70
2018-11-01T20:32:39.945Z,19.03
2018-11-01T20:35:09.829Z,21.90
2018-11-01T20:37:38.258Z,17.50
2018-11-01T20:40:06.928Z,15.00
2018-11-01T20:42:35.776Z,14.83
2018-11-01T20:45:05.392Z,14.13
2018-11-01T20:47:34.046Z,13.50
2018-11-01T20:50:02.656Z,13.77
2018-11-01T20:52:31.348Z,13.40
2018-11-01T20:54:59.881Z,13.03
2018-11-01T20:57:28.658Z,14.10
2018-11-01T20:59:57.278Z,13.27
2018-11-01T21:02:25.737Z,13.13
2018-11-01T21:04:54.336Z,13.73
2018-11-01T21:07:22.953Z,14.50
2018-11-01T21:09:51.400Z,12.93
2018-11-01T21:12:23.668Z,13.07
2018-11-01T21:14:52.246Z,13.07
2018-11-01T21:17:20.758Z,12.70
2018-11-01T21:19:51.443Z,13.50
2018-11-01T21:22:20.028Z,13.23
2018-11-01T21:24:48.534Z,11.20
2018-11-01T21:27:17.133Z,10.97
2018-11-01T21:29:45.690Z,10.43
2018-11-01T21:32:14.207Z,10.57
2018-11-01T21:34:42.669Z,11.00
2018-11-01T21:37:11.264Z,10.20
2018-11-01T21:39:39.715Z,9.80
2018-11-01T21:42:08.335Z,9.43
2018-11-01T21:44:36.886Z,9.50
2018-11-01T21:47:06.372Z,10.70
2018-11-01T21:49:35.092Z,10.50
2018-11-01T21:52:06.549Z,10.43
2018-11-01T21:54:35.290Z,9.30
2018-11-01T21:57:03.754Z,9.87
2018-11-01T21:59:32.450Z,9.90
2018-11-01T22:02:00.971Z,9.23
2018-11-01T22:04:30.072Z,9.77
2018-11-01T22:06:58.998Z,10.10
2018-11-01T22:09:27.643Z,10.13
2018-11-01T22:11:56.268Z,9.30
2018-11-01T22:14:24.751Z,9.53
2018-11-01T22:16:53.239Z,9.67
2018-11-01T22:19:21.871Z,11.20
2018-11-01T22:21:50.514Z,11.23
2018-11-01T22:24:18.950Z,11.13
2018-11-01T22:26:47.450Z,11.50
2018-11-01T22:29:15.945Z,9.90
2018-11-01T22:31:44.416Z,11.60
2018-11-01T22:34:12.910Z,11.77
2018-11-01T22:36:41.389Z,11.23
2018-11-01T22:39:10.553Z,10.10
2018-11-01T22:41:39.030Z,12.73
2018-11-01T22:44:07.482Z,13.97
2018-11-01T22:46:35.970Z,10.87
2018-11-01T22:49:04.615Z,9.70
2018-11-01T22:51:33.278Z,11.37
2018-11-01T22:54:01.815Z,10.37
2018-11-01T22:56:30.401Z,11.13
2018-11-01T22:58:58.870Z,11.23
2018-11-01T23:01:27.386Z,11.70
2018-11-01T23:03:55.846Z,10.87
2018-11-01T23:06:24.328Z,11.07
2018-11-01T23:08:52.798Z,11.10
2018-11-01T23:11:21.237Z,11.97
2018-11-01T23:13:49.722Z,11.10
2018-11-01T23:16:18.350Z,10.93
2018-11-01T23:18:46.996Z,13.03
2018-11-01T23:21:15.450Z,12.33
2018-11-01T23:23:43.910Z,12.33
2018-11-01T23:26:12.392Z,11.17
2018-11-01T23:28:41.035Z,14.50
2018-11-01T23:31:09.461Z,17.57
2018-11-01T23:33:38.139Z,13.33
2018-11-01T23:36:05.792Z,14.30
2018-11-01T23:38:39.535Z,14.73
2018-11-01T23:41:13.321Z,15.00
2018-11-01T23:43:47.246Z,14.70
2018-11-01T23:46:21.091Z,17.07
2018-11-01T23:49:00.699Z,15.27
2018-11-01T23:51:29.331Z,14.30
2018-11-01T23:53:57.786Z,15.83
2018-11-01T23:56:26.238Z,15.20
2018-11-01T23:58:54.685Z,15.27
